Time;durP1;ratioP1;P1;durP2;ratioP2;P2;SDS_P1;SDS_P2;PMS_P1;PMS_P2;Temp;Humidity;BMP_temperature;BMP_pressure;BME280_temperature;BME280_humidity;BME280_pressure;Samples;Min_cycle;Max_cycle;Signal;HPM_P1;HPM_P2
2023/04/28 00:02:23;;;;;;;;;;;;;;;4.92;95.56;100914.44;5590911;31;34714;-70
2023/04/28 00:05:26;;;;;;;;;;;;;;;5.09;93.99;100915.75;5590752;31;34621;-70
2023/04/28 00:08:28;;;;;;;;;;;;;;;4.93;94.53;100923.16;5591122;31;35079;-71
2023/04/28 00:11:31;;;;;;;;;;;;;;;4.90;95.87;100916.34;5591139;31;34932;-71
2023/04/28 00:14:33;;;;;;;;;;;;;;;4.78;95.94;100910.25;5590708;31;34491;-69
2023/04/28 00:17:36;;;;;;;;;;;;;;;4.66;97.49;100918.22;5590696;31;34457;-70
2023/04/28 00:20:39;;;;;;;;;;;;;;;4.50;98.10;100915.94;5576811;31;35746;-70
2023/04/28 00:23:41;;;;;;;;;;;;;;;4.38;98.93;100914.22;5590653;31;32913;-71
2023/04/28 00:26:44;;;;;;;;;;;;;;;4.36;100.00;100916.09;5590603;31;35293;-72
2023/04/28 00:29:47;;;;;;;;;;;;;;;4.28;100.00;100927.19;5590717;31;34442;-71
2023/04/28 00:32:50;;;;;;;;;;;;;;;4.19;100.00;100917.38;5590540;31;34444;-70
2023/04/28 00:35:59;;;;;;;;;;;;;;;4.15;100.00;100917.72;5590561;31;34570;-70
2023/04/28 00:39:02;;;;;;;;;;;;;;;4.26;100.00;100923.03;5576905;31;35190;-70
2023/04/28 00:42:05;;;;;;;;;;;;;;;4.19;100.00;100911.28;5590441;31;35097;-71
2023/04/28 00:45:08;;;;;;;;;;;;;;;4.14;100.00;100914.25;5590815;31;34610;-72
2023/04/28 00:48:12;;;;;;;;;;;;;;;4.13;100.00;100920.47;5590507;31;34490;-71
2023/04/28 00:51:15;;;;;;;;;;;;;;;4.02;100.00;100930.91;5590668;31;34451;-71
2023/04/28 00:54:17;;;;;;;;;;;;;;;3.94;100.00;100917.50;5590425;31;34975;-72
2023/04/28 00:57:21;;;;;;;;;;;;;;;3.88;100.00;100920.56;5576972;31;34571;-71
2023/04/28 01:00:23;;;;;;;;;;;;;;;3.90;100.00;100924.78;5590676;31;35069;-71
2023/04/28 01:03:26;;;;;;;;;;;;;;;3.84;100.00;100927.84;5589563;31;34637;-71
2023/04/28 01:06:30;;;;;;;;;;;;;;;3.81;100.00;100928.06;5590581;31;34612;-71
2023/04/28 01:09:34;;;;;;;;;;;;;;;3.86;100.00;100925.13;5590616;31;34441;-71
2023/04/28 01:12:36;;;;;;;;;;;;;;;3.76;100.00;100927.56;5590572;31;34436;-72
2023/04/28 01:15:39;;;;;;;;;;;;;;;3.71;100.00;100936.72;5590143;31;34972;-70
2023/04/28 01:18:45;;;;;;;;;;;;;;;3.80;100.00;100936.06;5590246;31;34404;-71
2023/04/28 01:21:49;;;;;;;;;;;;;;;3.90;100.00;100929.19;5590012;31;34593;-70
2023/04/28 01:24:51;;;;;;;;;;;;;;;3.97;100.00;100937.47;5590529;31;34432;-70
2023/04/28 01:27:54;;;;;;;;;;;;;;;3.97;100.00;100933.03;5589971;31;34370;-70
2023/04/28 01:30:57;;;;;;;;;;;;;;;4.24;100.00;100933.62;5576412;31;34123;-70
2023/04/28 01:33:59;;;;;;;;;;;;;;;4.33;100.00;100930.31;5590120;31;34387;-70
2023/04/28 01:37:02;;;;;;;;;;;;;;;4.44;100.00;100932.16;5590097;31;34423;-70
2023/04/28 01:40:05;;;;;;;;;;;;;;;4.26;100.00;100929.09;5589888;31;34473;-70
2023/04/28 01:43:08;;;;;;;;;;;;;;;4.26;100.00;100933.53;5590086;31;35835;-70
2023/04/28 01:46:11;;;;;;;;;;;;;;;4.32;100.00;100927.81;5589959;31;34472;-70
2023/04/28 01:49:13;;;;;;;;;;;;;;;4.12;100.00;100924.03;5590122;31;34439;-70
2023/04/28 01:52:18;;;;;;;;;;;;;;;3.91;100.00;100931.72;5589710;31;34445;-70
2023/04/28 01:55:21;;;;;;;;;;;;;;;3.82;100.00;100919.25;5590261;31;34590;-70
2023/04/28 01:58:24;;;;;;;;;;;;;;;4.03;100.00;100922.09;5589868;31;34465;-70
2023/04/28 02:01:27;;;;;;;;;;;;;;;3.98;100.00;100929.47;5589628;31;34967;-70
2023/04/28 02:04:30;;;;;;;;;;;;;;;3.92;100.00;100930.75;5589762;31;34553;-70
2023/04/28 02:07:32;;;;;;;;;;;;;;;3.81;100.00;100937.72;5576108;31;35271;-70
2023/04/28 02:10:35;;;;;;;;;;;;;;;3.72;100.00;100933.16;5589698;31;35108;-70
2023/04/28 02:13:38;;;;;;;;;;;;;;;3.49;100.00;100940.03;5589488;31;34482;-70
2023/04/28 02:16:40;;;;;;;;;;;;;;;3.46;100.00;100945.50;5589895;31;35217;-70
2023/04/28 02:19:45;;;;;;;;;;;;;;;3.61;100.00;100939.16;5576214;31;35010;-70
2023/04/28 02:22:48;;;;;;;;;;;;;;;3.64;100.00;100940.72;5589465;31;34381;-70
2023/04/28 02:25:59;;;;;;;;;;;;;;;3.70;100.00;100941.13;5589387;31;34409;-70
2023/04/28 02:29:04;;;;;;;;;;;;;;;3.60;100.00;100942.72;5589795;31;34601;-70
2023/04/28 02:32:07;;;;;;;;;;;;;;;3.45;100.00;100935.94;5589494;31;34499;-70
2023/04/28 02:35:09;;;;;;;;;;;;;;;3.27;100.00;100939.88;5589418;31;34645;-70
2023/04/28 02:38:12;;;;;;;;;;;;;;;3.18;100.00;100937.91;5589841;31;34473;-70
2023/04/28 02:41:15;;;;;;;;;;;;;;;3.17;100.00;100937.06;5589351;31;34128;-70
2023/04/28 02:44:17;;;;;;;;;;;;;;;3.08;100.00;100942.09;5589420;31;35034;-71
2023/04/28 02:47:20;;;;;;;;;;;;;;;3.04;100.00;100944.09;5589288;31;34391;-70
2023/04/28 02:50:22;;;;;;;;;;;;;;;3.02;100.00;100938.97;5589173;31;34581;-70
2023/04/28 02:53:25;;;;;;;;;;;;;;;3.01;100.00;100941.69;5589332;31;34389;-70
2023/04/28 02:56:28;;;;;;;;;;;;;;;2.96;100.00;100939.38;5589118;31;34475;-70
2023/04/28 02:59:31;;;;;;;;;;;;;;;2.90;100.00;100941.59;5589505;31;35112;-70
2023/04/28 03:02:34;;;;;;;;;;;;;;;2.86;100.00;100948.81;5589006;31;34544;-70
2023/04/28 03:05:37;;;;;;;;;;;;;;;2.85;100.00;100947.16;5589373;31;34970;-70
2023/04/28 03:08:40;;;;;;;;;;;;;;;2.91;100.00;100945.87;5588992;31;34442;-71
2023/04/28 03:11:43;;;;;;;;;;;;;;;2.92;100.00;100945.78;5575619;31;34335;-70
2023/04/28 03:14:45;;;;;;;;;;;;;;;2.89;100.00;100945.16;5588980;31;34542;-71
2023/04/28 03:17:48;;;;;;;;;;;;;;;3.08;100.00;100953.44;5589109;31;34988;-71
2023/04/28 03:20:50;;;;;;;;;;;;;;;3.27;100.00;100958.22;5588661;31;35093;-71
2023/04/28 03:23:54;;;;;;;;;;;;;;;3.31;100.00;100955.28;5589059;31;34484;-71
2023/04/28 03:26:57;;;;;;;;;;;;;;;3.31;100.00;100957.06;5590794;31;34618;-71
2023/04/28 03:30:00;;;;;;;;;;;;;;;3.39;100.00;100959.97;5591511;31;34069;-70
2023/04/28 03:33:02;;;;;;;;;;;;;;;3.40;100.00;100956.41;5577603;31;34491;-70
2023/04/28 03:36:05;;;;;;;;;;;;;;;3.17;100.00;100960.66;5591114;31;34390;-70
2023/04/28 03:39:08;;;;;;;;;;;;;;;3.04;100.00;100965.91;5591123;31;34628;-70
2023/04/28 03:42:11;;;;;;;;;;;;;;;2.93;100.00;100960.56;5591249;31;35073;-70
2023/04/28 03:45:16;;;;;;;;;;;;;;;2.88;100.00;100956.56;5591047;31;33819;-71
2023/04/28 03:48:20;;;;;;;;;;;;;;;2.89;100.00;100959.09;5590926;31;34965;-70
2023/04/28 03:51:23;;;;;;;;;;;;;;;2.91;100.00;100957.19;5591237;31;34350;-71
2023/04/28 03:54:25;;;;;;;;;;;;;;;2.95;100.00;100958.66;5591394;31;33779;-70
2023/04/28 03:57:28;;;;;;;;;;;;;;;3.02;100.00;100961.69;5591297;31;34731;-70
2023/04/28 04:00:30;;;;;;;;;;;;;;;3.05;100.00;100969.34;5590802;31;34438;-70
2023/04/28 04:03:33;;;;;;;;;;;;;;;3.13;100.00;100966.22;5577163;31;35076;-71
2023/04/28 04:06:36;;;;;;;;;;;;;;;3.16;100.00;100977.31;5590752;31;35086;-70
2023/04/28 04:09:39;;;;;;;;;;;;;;;3.37;100.00;100972.37;5591042;31;34923;-70
2023/04/28 04:12:41;;;;;;;;;;;;;;;3.50;100.00;100975.81;5590840;31;34436;-70
2023/04/28 04:15:44;;;;;;;;;;;;;;;3.70;100.00;100977.03;5590849;31;34490;-70
2023/04/28 04:18:47;;;;;;;;;;;;;;;3.75;100.00;100981.00;5576816;31;34432;-70
2023/04/28 04:21:51;;;;;;;;;;;;;;;3.75;100.00;100978.38;5590873;31;34782;-71
2023/04/28 04:24:53;;;;;;;;;;;;;;;3.81;100.00;100983.19;5576784;31;34414;-70
2023/04/28 04:27:56;;;;;;;;;;;;;;;3.87;100.00;100985.34;5590528;31;34552;-69
2023/04/28 04:31:03;;;;;;;;;;;;;;;4.04;100.00;100991.19;5590452;31;34493;-71
2023/04/28 04:34:06;;;;;;;;;;;;;;;4.09;100.00;100989.06;5590825;31;34337;-71
2023/04/28 04:37:09;;;;;;;;;;;;;;;4.15;100.00;100980.75;5589673;31;34516;-70
2023/04/28 04:40:13;;;;;;;;;;;;;;;4.20;100.00;100984.72;5590879;31;35025;-69
2023/04/28 04:43:16;;;;;;;;;;;;;;;4.35;100.00;100988.84;5590448;31;34711;-70
2023/04/28 04:46:19;;;;;;;;;;;;;;;4.49;100.00;100976.47;5590406;31;34573;-70
2023/04/28 04:49:22;;;;;;;;;;;;;;;4.64;100.00;100986.69;5590281;31;35058;-70
2023/04/28 04:52:25;;;;;;;;;;;;;;;4.69;100.00;100992.44;5590199;31;34596;-70
2023/04/28 04:55:28;;;;;;;;;;;;;;;4.88;100.00;100981.34;5590164;31;35165;-71
2023/04/28 04:58:31;;;;;;;;;;;;;;;5.07;100.00;100994.78;5590276;31;34499;-70
2023/04/28 05:01:35;;;;;;;;;;;;;;;5.18;100.00;100994.75;5590550;31;34587;-70
2023/04/28 05:04:38;;;;;;;;;;;;;;;5.54;100.00;100990.25;5590243;31;34306;-70
2023/04/28 05:07:41;;;;;;;;;;;;;;;5.69;100.00;100989.87;5590371;31;34466;-70
2023/04/28 05:10:44;;;;;;;;;;;;;;;5.64;100.00;100988.56;5590007;31;34360;-70
2023/04/28 05:13:47;;;;;;;;;;;;;;;5.88;100.00;100997.16;5589894;31;34498;-70
2023/04/28 05:16:50;;;;;;;;;;;;;;;6.08;100.00;100996.41;5590215;31;34491;-70
2023/04/28 05:19:54;;;;;;;;;;;;;;;6.21;100.00;100993.59;5589769;31;34573;-70
2023/04/28 05:22:58;;;;;;;;;;;;;;;6.23;100.00;100999.59;5589689;31;34406;-70
2023/04/28 05:26:01;;;;;;;;;;;;;;;6.39;100.00;100999.19;5589661;31;34610;-70
2023/04/28 05:29:05;;;;;;;;;;;;;;;6.63;100.00;101009.50;5590216;31;35110;-70
2023/04/28 05:32:07;;;;;;;;;;;;;;;6.75;99.13;101000.56;5589757;31;34380;-74
2023/04/28 05:35:10;;;;;;;;;;;;;;;6.65;96.02;101003.13;5576284;31;34708;-71
2023/04/28 05:38:13;;;;;;;;;;;;;;;6.70;94.48;101003.59;5589850;31;34411;-71
2023/04/28 05:41:17;;;;;;;;;;;;;;;6.89;93.22;101010.78;5589562;31;35052;-71
2023/04/28 05:44:19;;;;;;;;;;;;;;;6.75;91.55;101005.84;5589398;31;34587;-71
2023/04/28 05:47:22;;;;;;;;;;;;;;;7.06;88.42;101001.47;5589158;31;35153;-70
2023/04/28 05:50:25;;;;;;;;;;;;;;;7.13;89.21;101006.09;5588602;31;35192;-70
2023/04/28 05:53:28;;;;;;;;;;;;;;;7.55;85.55;101003.37;5589562;31;34443;-70
2023/04/28 05:56:30;;;;;;;;;;;;;;;8.00;83.17;101006.41;5589421;31;34958;-70
2023/04/28 05:59:33;;;;;;;;;;;;;;;8.40;77.20;101009.03;5589103;31;35026;-70
2023/04/28 06:02:35;;;;;;;;;;;;;;;8.84;74.11;101013.75;5589292;31;35133;-70
2023/04/28 06:05:38;;;;;;;;;;;;;;;8.84;71.77;101011.09;5589242;31;34359;-70
2023/04/28 06:08:41;;;;;;;;;;;;;;;9.33;67.03;101020.59;5589598;31;34543;-71
2023/04/28 06:11:44;;;;;;;;;;;;;;;9.28;66.07;101022.00;5589272;31;35164;-71
2023/04/28 06:14:47;;;;;;;;;;;;;;;9.44;66.65;101017.75;5588208;31;35193;-71
2023/04/28 06:17:50;;;;;;;;;;;;;;;9.39;64.75;101020.00;5588977;31;34478;-70
2023/04/28 06:20:52;;;;;;;;;;;;;;;9.48;63.43;101024.47;5588882;31;35136;-70
2023/04/28 06:23:55;;;;;;;;;;;;;;;9.18;64.78;101021.19;5588882;31;35148;-70
2023/04/28 06:26:57;;;;;;;;;;;;;;;9.49;65.83;101025.28;5588581;31;34436;-71
2023/04/28 06:30:00;;;;;;;;;;;;;;;9.82;64.24;101018.59;5588873;31;34491;-70
2023/04/28 06:33:06;;;;;;;;;;;;;;;10.16;62.76;101026.81;5589255;31;34457;-71
2023/04/28 06:36:12;;;;;;;;;;;;;;;10.87;62.27;101025.81;5589103;31;34342;-71
2023/04/28 06:39:15;;;;;;;;;;;;;;;11.38;59.10;101024.16;5575204;31;34343;-71
2023/04/28 06:42:19;;;;;;;;;;;;;;;11.55;57.60;101023.28;5575585;31;35120;-72
2023/04/28 06:45:24;;;;;;;;;;;;;;;11.49;57.16;101023.91;5589405;31;34973;-71
2023/04/28 06:48:27;;;;;;;;;;;;;;;11.21;59.58;101019.75;5584986;31;125728;-72
2023/04/28 06:51:31;;;;;;;;;;;;;;;11.02;61.23;101017.31;5588841;31;35071;-71
2023/04/28 06:54:34;;;;;;;;;;;;;;;11.66;56.22;101036.31;5589094;31;34425;-71
2023/04/28 06:57:36;;;;;;;;;;;;;;;11.31;57.53;101021.31;5589392;31;35057;-71
2023/04/28 07:00:41;;;;;;;;;;;;;;;10.97;57.89;101020.41;5587839;31;34535;-72
2023/04/28 07:03:43;;;;;;;;;;;;;;;12.13;55.47;101023.37;5588667;31;34537;-71
2023/04/28 07:06:47;;;;;;;;;;;;;;;12.41;51.05;101021.28;5588809;31;34502;-72
2023/04/28 07:09:51;;;;;;;;;;;;;;;12.70;49.79;101014.62;5574812;31;34415;-72
2023/04/28 07:12:53;;;;;;;;;;;;;;;12.56;49.94;101010.81;5588747;31;34423;-71
2023/04/28 07:15:56;;;;;;;;;;;;;;;12.44;49.63;101012.94;5588509;31;34361;-71
2023/04/28 07:18:58;;;;;;;;;;;;;;;12.66;48.67;101007.97;5588506;31;34414;-70
2023/04/28 07:22:01;;;;;;;;;;;;;;;12.60;51.92;101005.00;5588410;31;34334;-71
2023/04/28 07:25:04;;;;;;;;;;;;;;;13.93;46.82;101005.25;5588438;31;34548;-71
2023/04/28 07:28:07;;;;;;;;;;;;;;;14.92;44.64;101004.41;5588387;31;34547;-72
2023/04/28 07:31:10;;;;;;;;;;;;;;;14.95;44.66;101004.06;5587951;31;35016;-71
2023/04/28 07:34:13;;;;;;;;;;;;;;;14.94;43.30;101009.56;5588165;31;35199;-71
2023/04/28 07:37:16;;;;;;;;;;;;;;;14.59;44.31;101003.03;5587999;31;34493;-72
2023/04/28 07:40:18;;;;;;;;;;;;;;;16.35;41.13;101009.28;5587953;31;34454;-71
2023/04/28 07:43:21;;;;;;;;;;;;;;;16.71;39.03;101003.88;5588060;31;34448;-72
2023/04/28 07:46:24;;;;;;;;;;;;;;;16.51;38.48;101003.66;5588111;31;35015;-72
2023/04/28 07:49:30;;;;;;;;;;;;;;;16.57;40.01;101002.06;5587508;31;34485;-71
2023/04/28 07:52:32;;;;;;;;;;;;;;;16.54;39.57;101002.44;5587933;31;34528;-71
2023/04/28 07:55:36;;;;;;;;;;;;;;;15.17;41.42;100992.47;5587772;31;35057;-71
2023/04/28 07:58:40;;;;;;;;;;;;;;;15.10;42.27;100985.38;5587596;31;35427;-71
2023/04/28 08:01:43;;;;;;;;;;;;;;;15.55;40.52;100990.59;5587435;31;34514;-72
2023/04/28 08:04:46;;;;;;;;;;;;;;;15.91;39.04;100977.28;5587536;31;34491;-70
2023/04/28 08:07:49;;;;;;;;;;;;;;;16.51;38.91;100976.84;5587160;31;35379;-71
2023/04/28 08:10:51;;;;;;;;;;;;;;;17.02;38.23;100967.84;5587754;31;34428;-72
2023/04/28 08:13:55;;;;;;;;;;;;;;;17.64;36.61;100959.78;5590381;31;34453;-71
2023/04/28 08:16:58;;;;;;;;;;;;;;;17.91;36.36;100966.09;5590561;31;34976;-72
2023/04/28 08:20:00;;;;;;;;;;;;;;;17.26;37.70;100956.66;5576922;31;34421;-73
2023/04/28 08:23:03;;;;;;;;;;;;;;;18.41;34.46;100952.16;5590445;31;34396;-71
2023/04/28 08:26:06;;;;;;;;;;;;;;;18.26;34.02;100948.81;5590368;31;34470;-72
2023/04/28 08:29:08;;;;;;;;;;;;;;;18.29;33.13;100951.13;5576902;31;35089;-71
2023/04/28 08:32:11;;;;;;;;;;;;;;;19.18;32.07;100940.75;5590462;31;34470;-70
2023/04/28 08:35:14;;;;;;;;;;;;;;;19.63;30.25;100939.00;5590320;31;34442;-71
2023/04/28 08:38:17;;;;;;;;;;;;;;;19.93;29.25;100942.81;5589865;31;34473;-71
2023/04/28 08:41:20;;;;;;;;;;;;;;;19.19;30.10;100934.34;5590138;31;35095;-71
2023/04/28 08:44:23;;;;;;;;;;;;;;;20.07;30.10;100934.66;5590120;31;34450;-73
2023/04/28 08:47:31;;;;;;;;;;;;;;;20.40;29.39;100932.59;5590325;31;34562;-72
2023/04/28 08:50:35;;;;;;;;;;;;;;;21.00;29.44;100920.25;5590006;31;34257;-73
2023/04/28 08:53:38;;;;;;;;;;;;;;;21.17;27.93;100923.22;5590326;31;34466;-72
2023/04/28 08:57:01;;;;;;;;;;;;;;;20.15;28.51;100910.12;5590205;31;34496;-73
2023/04/28 09:00:05;;;;;;;;;;;;;;;21.71;25.48;100913.44;5590093;31;35813;-72
2023/04/28 09:03:07;;;;;;;;;;;;;;;21.94;25.53;100918.97;5590036;31;35044;-71
2023/04/28 09:06:10;;;;;;;;;;;;;;;21.55;27.82;100922.97;5589981;31;35186;-72
2023/04/28 09:09:44;;;;;;;;;;;;;;;21.09;27.96;100913.53;5576032;31;35097;-71
2023/04/28 09:12:48;;;;;;;;;;;;;;;21.71;25.64;100916.16;5589445;31;35095;-70
2023/04/28 09:15:58;;;;;;;;;;;;;;;22.09;24.95;100908.56;5589835;31;34335;-70
2023/04/28 09:19:00;;;;;;;;;;;;;;;22.46;24.29;100915.47;5589813;31;34971;-71
2023/04/28 09:22:04;;;;;;;;;;;;;;;21.36;24.99;100908.69;5589865;31;34601;-72
2023/04/28 09:25:26;;;;;;;;;;;;;;;20.94;26.14;100899.56;5589643;31;34429;-72
2023/04/28 09:28:30;;;;;;;;;;;;;;;20.56;28.56;100906.97;5589709;31;34477;-72
2023/04/28 09:31:39;;;;;;;;;;;;;;;21.89;27.25;100911.53;5589637;31;34701;-70
2023/04/28 09:34:46;;;;;;;;;;;;;;;21.21;27.11;100911.75;5589841;31;34736;-73
2023/04/28 09:37:58;;;;;;;;;;;;;;;19.41;28.95;100899.97;5589083;31;34400;-72
2023/04/28 09:41:01;;;;;;;;;;;;;;;20.84;27.22;100904.66;5589738;31;34336;-73
2023/04/28 09:44:10;;;;;;;;;;;;;;;20.08;29.92;100898.59;5575801;31;34428;-73
2023/04/28 09:47:21;;;;;;;;;;;;;;;20.94;26.64;100891.47;5575463;31;35102;-72
2023/04/28 09:50:23;;;;;;;;;;;;;;;20.74;26.62;100883.56;5589147;31;34411;-73
2023/04/28 09:53:27;;;;;;;;;;;;;;;19.99;28.63;100876.50;5589497;31;34946;-72
2023/04/28 09:56:30;;;;;;;;;;;;;;;18.38;30.40;100869.28;5589629;31;34976;-73
2023/04/28 09:59:35;;;;;;;;;;;;;;;20.25;29.58;100876.28;5589632;31;34356;-73
2023/04/28 10:02:39;;;;;;;;;;;;;;;22.11;26.70;100879.47;5589632;31;34455;-74
2023/04/28 10:05:48;;;;;;;;;;;;;;;20.63;27.74;100878.06;5589639;31;34281;-71
2023/04/28 10:08:51;;;;;;;;;;;;;;;20.30;27.80;100864.84;5589574;31;35107;-74
2023/04/28 10:11:54;;;;;;;;;;;;;;;20.04;27.80;100865.91;5589577;31;34567;-72
2023/04/28 10:14:58;;;;;;;;;;;;;;;20.72;27.42;100861.38;5589594;31;35098;-72
2023/04/28 10:18:04;;;;;;;;;;;;;;;21.04;27.06;100858.59;5589548;31;34276;-74
2023/04/28 10:21:08;;;;;;;;;;;;;;;21.20;27.50;100841.84;5589738;31;34483;-72
2023/04/28 10:24:16;;;;;;;;;;;;;;;19.84;27.99;100854.41;5589291;31;35132;-71
2023/04/28 10:27:18;;;;;;;;;;;;;;;18.18;29.91;100839.75;5589274;31;34616;-72
2023/04/28 10:30:22;;;;;;;;;;;;;;;17.90;32.62;100836.41;5588974;31;34458;-71
2023/04/28 10:33:31;;;;;;;;;;;;;;;19.55;28.75;100828.91;5575986;31;34656;-70
2023/04/28 10:36:46;;;;;;;;;;;;;;;19.16;28.25;100818.31;5589240;31;34490;-71
2023/04/28 10:40:17;;;;;;;;;;;;;;;21.64;26.71;100817.13;5575347;31;34479;-70
2023/04/28 10:43:23;;;;;;;;;;;;;;;23.90;23.76;100813.56;5589345;31;34718;-71
2023/04/28 10:46:49;;;;;;;;;;;;;;;23.23;23.88;100807.97;5589063;31;34598;-73
2023/04/28 10:49:56;;;;;;;;;;;;;;;24.86;22.60;100809.63;5588687;31;34983;-72
2023/04/28 10:52:59;;;;;;;;;;;;;;;24.12;22.53;100802.81;5589042;31;35144;-71
2023/04/28 10:56:05;;;;;;;;;;;;;;;21.18;26.07;100804.28;5589377;31;35039;-69
2023/04/28 10:59:23;;;;;;;;;;;;;;;20.91;27.73;100788.63;5588498;31;34348;-71
2023/04/28 11:02:38;;;;;;;;;;;;;;;20.05;28.10;100778.63;5575111;31;32980;-73
2023/04/28 11:06:04;;;;;;;;;;;;;;;20.86;27.27;100773.13;5563087;31;35077;-72
2023/04/28 11:09:16;;;;;;;;;;;;;;;19.73;29.38;100785.09;5589184;31;34473;-71
2023/04/28 11:12:19;;;;;;;;;;;;;;;18.39;30.50;100765.34;5588784;31;34375;-72
2023/04/28 11:15:22;;;;;;;;;;;;;;;19.31;30.60;100762.37;5588476;31;34573;-72
2023/04/28 11:18:27;;;;;;;;;;;;;;;19.50;31.32;100753.38;5588832;31;35121;-72
2023/04/28 11:21:31;;;;;;;;;;;;;;;19.77;29.16;100757.53;5588504;31;34471;-73
2023/04/28 11:24:33;;;;;;;;;;;;;;;19.95;29.08;100760.28;5588545;31;34405;-70
2023/04/28 11:27:36;;;;;;;;;;;;;;;19.92;29.20;100768.81;5588517;31;34430;-72
2023/04/28 11:30:38;;;;;;;;;;;;;;;18.78;30.60;100767.16;5588310;31;33726;-71
2023/04/28 11:33:42;;;;;;;;;;;;;;;18.80;30.26;100757.00;5588266;31;35071;-71
2023/04/28 11:36:44;;;;;;;;;;;;;;;17.81;32.38;100757.94;5588322;31;34510;-70
2023/04/28 11:39:48;;;;;;;;;;;;;;;17.70;33.38;100755.03;5588152;31;35077;-71
2023/04/28 11:42:50;;;;;;;;;;;;;;;18.11;34.54;100746.78;5587971;31;34477;-73
2023/04/28 11:45:54;;;;;;;;;;;;;;;18.09;32.86;100757.75;5588667;31;34540;-70
2023/04/28 11:49:05;;;;;;;;;;;;;;;17.91;32.07;100764.78;5590592;31;34670;-70
2023/04/28 11:52:08;;;;;;;;;;;;;;;17.86;32.74;100764.56;5590623;31;34518;-70
2023/04/28 11:55:15;;;;;;;;;;;;;;;18.07;32.50;100759.78;5577006;31;34169;-71
2023/04/28 11:58:21;;;;;;;;;;;;;;;17.89;33.08;100743.50;5590293;31;35144;-70
2023/04/28 12:01:23;;;;;;;;;;;;;;;18.36;33.65;100746.94;5590481;31;35229;-71
2023/04/28 12:04:39;;;;;;;;;;;;;;;17.57;33.43;100737.03;5590958;31;34403;-72
2023/04/28 12:07:42;;;;;;;;;;;;;;;18.40;31.73;100732.06;5590566;31;34451;-70
2023/04/28 12:11:05;;;;;;;;;;;;;;;18.28;32.57;100723.84;5590257;31;35169;-71
2023/04/28 12:14:08;;;;;;;;;;;;;;;18.04;33.99;100729.84;5590530;31;34515;-69
2023/04/28 12:17:21;;;;;;;;;;;;;;;17.65;33.45;100739.56;5590363;31;34437;-72
2023/04/28 12:20:37;;;;;;;;;;;;;;;17.23;33.93;100718.41;5590556;31;34932;-71
2023/04/28 12:23:42;;;;;;;;;;;;;;;16.74;34.94;100724.03;5590511;31;34657;-69
2023/04/28 12:26:44;;;;;;;;;;;;;;;16.94;36.03;100720.38;5590133;31;34307;-70
2023/04/28 12:29:47;;;;;;;;;;;;;;;17.17;34.52;100713.84;5576798;31;34345;-71
2023/04/28 12:32:50;;;;;;;;;;;;;;;17.36;35.23;100718.44;5590813;31;34656;-70
2023/04/28 12:35:53;;;;;;;;;;;;;;;17.61;35.06;100703.44;5590393;31;34790;-71
2023/04/28 12:38:56;;;;;;;;;;;;;;;17.56;34.97;100705.88;5576743;31;34448;-69
2023/04/28 12:42:01;;;;;;;;;;;;;;;17.63;34.54;100697.84;5590492;31;34357;-72
2023/04/28 12:45:05;;;;;;;;;;;;;;;18.11;34.69;100685.00;5590211;31;34520;-72
2023/04/28 12:48:08;;;;;;;;;;;;;;;18.96;32.68;100683.94;5590170;31;35073;-72
2023/04/28 12:51:10;;;;;;;;;;;;;;;18.29;33.63;100668.25;5590353;31;34342;-70
2023/04/28 12:54:13;;;;;;;;;;;;;;;18.58;33.91;100651.66;5589933;31;34584;-70
2023/04/28 12:57:17;;;;;;;;;;;;;;;19.91;32.36;100659.44;5589673;31;34453;-69
2023/04/28 13:00:22;;;;;;;;;;;;;;;20.62;30.92;100655.38;5589957;31;34556;-71
2023/04/28 13:03:24;;;;;;;;;;;;;;;21.01;30.71;100635.94;5590093;31;34263;-74
2023/04/28 13:06:27;;;;;;;;;;;;;;;21.80;29.25;100625.78;5589950;31;34466;-73
2023/04/28 13:09:30;;;;;;;;;;;;;;;24.76;25.92;100627.69;5576187;31;34325;-70
2023/04/28 13:12:33;;;;;;;;;;;;;;;23.94;25.95;100621.47;5590170;31;35170;-71
2023/04/28 13:15:36;;;;;;;;;;;;;;;23.82;28.07;100616.16;5590052;31;34441;-71
2023/04/28 13:18:40;;;;;;;;;;;;;;;20.64;30.40;100605.56;5590122;31;34504;-71
2023/04/28 13:21:43;;;;;;;;;;;;;;;21.56;29.55;100611.47;5590152;31;35088;-71
2023/04/28 13:24:46;;;;;;;;;;;;;;;20.04;31.34;100618.09;5589779;31;34423;-71
2023/04/28 13:27:49;;;;;;;;;;;;;;;19.99;31.45;100623.34;5589784;31;34351;-71
2023/04/28 13:30:52;;;;;;;;;;;;;;;19.38;32.12;100615.16;5590254;31;35105;-71
2023/04/28 13:33:54;;;;;;;;;;;;;;;19.38;33.65;100616.00;5589788;31;34480;-71
2023/04/28 13:36:58;;;;;;;;;;;;;;;19.08;32.60;100617.66;5576063;31;34552;-70
2023/04/28 13:40:02;;;;;;;;;;;;;;;19.30;34.10;100616.28;5589799;31;34359;-74
2023/04/28 13:43:06;;;;;;;;;;;;;;;18.94;32.51;100614.25;5589575;31;33815;-71
2023/04/28 13:46:09;;;;;;;;;;;;;;;18.64;33.57;100611.31;5589433;31;34504;-71
2023/04/28 13:49:12;;;;;;;;;;;;;;;18.33;33.96;100610.41;5589180;31;34548;-72
2023/04/28 13:52:15;;;;;;;;;;;;;;;18.27;33.86;100598.62;5589340;31;34454;-69
2023/04/28 13:55:17;;;;;;;;;;;;;;;17.57;34.88;100594.03;5589358;31;34807;-70
2023/04/28 13:58:21;;;;;;;;;;;;;;;17.69;34.70;100582.47;5589346;31;35095;-72
2023/04/28 14:01:24;;;;;;;;;;;;;;;18.52;33.77;100579.94;5575920;31;35186;-69
2023/04/28 14:04:27;;;;;;;;;;;;;;;19.57;32.57;100568.44;5589365;31;33984;-70
2023/04/28 14:07:29;;;;;;;;;;;;;;;19.88;32.11;100568.34;5589235;31;34523;-69
2023/04/28 14:10:32;;;;;;;;;;;;;;;19.10;32.61;100561.81;5588953;31;34405;-70
2023/04/28 14:13:35;;;;;;;;;;;;;;;19.58;31.92;100547.75;5589002;31;34437;-71
2023/04/28 14:16:38;;;;;;;;;;;;;;;17.86;34.62;100549.84;5589107;31;34663;-70
2023/04/28 14:19:40;;;;;;;;;;;;;;;17.51;35.91;100555.47;5589285;31;34447;-71
2023/04/28 14:22:43;;;;;;;;;;;;;;;17.56;35.71;100562.87;5589263;31;35207;-70
2023/04/28 14:25:45;;;;;;;;;;;;;;;17.51;35.31;100558.13;5589094;31;34753;-72
2023/04/28 14:28:48;;;;;;;;;;;;;;;17.13;37.35;100555.28;5588340;31;33951;-72
2023/04/28 14:31:51;;;;;;;;;;;;;;;17.38;36.42;100558.97;5589128;31;34629;-71
2023/04/28 14:34:53;;;;;;;;;;;;;;;17.14;36.64;100551.53;5588988;31;34462;-71
2023/04/28 14:37:56;;;;;;;;;;;;;;;16.94;37.04;100543.50;5588364;31;34507;-71
2023/04/28 14:40:59;;;;;;;;;;;;;;;17.10;38.23;100550.31;5588387;31;34452;-71
2023/04/28 14:44:07;;;;;;;;;;;;;;;17.28;38.51;100536.31;5588962;31;34556;-71
2023/04/28 14:47:10;;;;;;;;;;;;;;;17.38;37.64;100536.69;5588450;31;34462;-70
2023/04/28 14:50:12;;;;;;;;;;;;;;;17.16;39.62;100535.25;5588846;31;34459;-71
2023/04/28 14:53:15;;;;;;;;;;;;;;;17.12;39.79;100529.50;5588880;31;34455;-72
2023/04/28 14:56:19;;;;;;;;;;;;;;;17.25;38.20;100540.19;5588673;31;35238;-70
2023/04/28 14:59:21;;;;;;;;;;;;;;;16.79;38.16;100534.00;5588786;31;34398;-71
2023/04/28 15:02:28;;;;;;;;;;;;;;;16.58;38.69;100532.31;5588593;31;34133;-71
2023/04/28 15:05:31;;;;;;;;;;;;;;;16.86;38.47;100521.44;5588889;31;34343;-70
2023/04/28 15:08:34;;;;;;;;;;;;;;;16.77;39.16;100519.97;5588638;31;34500;-72
2023/04/28 15:11:36;;;;;;;;;;;;;;;16.55;39.28;100513.97;5589141;31;35199;-71
2023/04/28 15:14:39;;;;;;;;;;;;;;;16.60;39.45;100511.53;5588564;31;34499;-70
2023/04/28 15:17:41;;;;;;;;;;;;;;;17.05;39.19;100512.56;5588840;31;34499;-71
2023/04/28 15:20:44;;;;;;;;;;;;;;;17.05;38.54;100517.94;5588579;31;34564;-71
2023/04/28 15:23:47;;;;;;;;;;;;;;;16.86;38.96;100511.53;5591070;31;35141;-72
2023/04/28 15:26:50;;;;;;;;;;;;;;;16.85;39.83;100507.22;5590819;31;34345;-72
2023/04/28 15:29:53;;;;;;;;;;;;;;;17.04;39.11;100505.56;5591419;31;34608;-72
2023/04/28 15:32:56;;;;;;;;;;;;;;;17.00;40.47;100500.81;5590836;31;35057;-70
2023/04/28 15:35:58;;;;;;;;;;;;;;;16.87;39.67;100501.66;5590286;31;34965;-72
2023/04/28 15:39:01;;;;;;;;;;;;;;;16.76;40.03;100492.38;5590115;31;34933;-72
2023/04/28 15:42:04;;;;;;;;;;;;;;;16.78;40.19;100493.00;5589890;31;34397;-70
2023/04/28 15:45:09;;;;;;;;;;;;;;;16.62;40.98;100493.38;5591009;31;34660;-71
2023/04/28 15:48:11;;;;;;;;;;;;;;;16.41;40.54;100493.53;5590993;31;34818;-69